Terminal Aerodrome Forecast
Issued by NWS

Home | Current Version | Previous Version | Text Only | Print | Product List | Glossary On
Versions: 1 2 3 4 5 6 7 8 9 10 11 12 13 14 15 16 17 18 19 20 21 22 23 24 25 26 27 28 29 30 31 32
000
FTUS45 KABQ 012200 AAC
TAFLVS
TAF AMD
KLVS 012204Z 0122/0218 20018G23KT P6SM OVC002
     FM020000 19015KT P6SM SCT004
     FM020200 17010KT P6SM SKC
     FM020900 21007KT P6SM SCT200=

USA.gov is the U.S. government's official web portal to all federal, state and local government web resources and services.